createdAt,value
2022-09-27T00:00:15.248Z,1.47
2022-09-27T00:02:42.077Z,1.20
2022-09-27T00:05:09.605Z,1.50
2022-09-27T00:07:36.351Z,1.23
2022-09-27T00:10:04.515Z,1.40
2022-09-27T00:12:32.732Z,1.37
2022-09-27T00:15:01.388Z,1.30
2022-09-27T00:17:28.513Z,1.30
2022-09-27T00:19:58.602Z,1.40
2022-09-27T00:22:26.138Z,1.37
2022-09-27T00:24:53.488Z,1.40
2022-09-27T00:27:21.075Z,1.20
2022-09-27T00:29:49.755Z,1.23
2022-09-27T00:32:16.547Z,2.10
2022-09-27T00:34:43.852Z,5.67
2022-09-27T00:37:11.450Z,1.73
2022-09-27T00:39:41.783Z,1.40
2022-09-27T00:42:10.855Z,1.43
2022-09-27T00:45:00.782Z,1.20
2022-09-27T00:47:33.638Z,1.30
2022-09-27T00:50:05.711Z,1.20
2022-09-27T00:52:37.477Z,1.30
2022-09-27T00:55:11.335Z,1.20
2022-09-27T00:57:38.572Z,1.20
2022-09-27T01:00:09.912Z,1.27
2022-09-27T01:02:38.808Z,1.10
2022-09-27T01:05:08.689Z,1.10
2022-09-27T01:07:35.560Z,1.20
2022-09-27T01:10:04.304Z,1.00
2022-09-27T01:12:42.363Z,1.10
2022-09-27T01:15:19.852Z,1.10
2022-09-27T01:17:59.390Z,1.20
2022-09-27T01:20:51.287Z,1.10
2022-09-27T01:23:43.738Z,1.07
2022-09-27T01:26:16.791Z,1.20
2022-09-27T01:28:58.522Z,1.10
2022-09-27T01:31:33.011Z,1.20
2022-09-27T01:34:05.391Z,1.30
2022-09-27T01:36:43.411Z,1.30
2022-09-27T01:39:23.562Z,1.20
2022-09-27T01:42:01.647Z,1.50
2022-09-27T01:44:33.780Z,1.30
2022-09-27T01:47:04.307Z,1.40
2022-09-27T01:49:36.670Z,1.70
2022-09-27T01:52:07.927Z,1.70
2022-09-27T01:54:41.420Z,1.63
2022-09-27T01:57:11.434Z,1.57
2022-09-27T01:59:43.268Z,1.70
2022-09-27T02:02:12.578Z,1.50
2022-09-27T02:04:42.463Z,1.37
2022-09-27T02:07:14.641Z,1.20
2022-09-27T02:09:46.652Z,1.40
2022-09-27T02:12:16.624Z,1.60
2022-09-27T02:14:48.892Z,1.70
2022-09-27T02:17:27.516Z,1.70
2022-09-27T02:20:02.829Z,1.43
2022-09-27T02:22:35.443Z,1.70
2022-09-27T02:25:10.058Z,1.90
2022-09-27T02:27:46.495Z,2.40
2022-09-27T02:30:16.102Z,2.30
2022-09-27T02:32:44.974Z,2.97
2022-09-27T02:35:16.691Z,2.97
2022-09-27T02:37:43.775Z,3.17
2022-09-27T02:40:11.394Z,3.00
2022-09-27T02:42:38.822Z,2.70
2022-09-27T02:45:06.918Z,2.63
2022-09-27T02:47:56.749Z,2.47
2022-09-27T02:51:05.409Z,1.73
2022-09-27T02:53:44.791Z,2.10
2022-09-27T02:56:20.189Z,2.03
2022-09-27T02:58:57.862Z,1.80
2022-09-27T03:01:32.316Z,1.80
2022-09-27T03:04:06.673Z,1.60
2022-09-27T03:06:34.501Z,1.50
2022-09-27T03:09:01.314Z,1.40
2022-09-27T03:11:28.459Z,1.97
2022-09-27T03:14:08.393Z,1.87
2022-09-27T03:16:36.586Z,1.93
2022-09-27T03:19:05.220Z,1.77
2022-09-27T03:21:32.031Z,1.93
2022-09-27T03:23:59.272Z,2.00
2022-09-27T03:26:27.141Z,2.23
2022-09-27T03:28:54.482Z,1.90
2022-09-27T03:31:21.612Z,1.80
2022-09-27T03:33:48.678Z,1.90
2022-09-27T03:36:16.939Z,1.93
2022-09-27T03:38:43.728Z,1.93
2022-09-27T03:41:10.948Z,1.40
2022-09-27T03:43:37.677Z,1.70
2022-09-27T03:46:04.720Z,1.63
2022-09-27T03:48:31.588Z,1.90
2022-09-27T03:50:58.781Z,1.83
2022-09-27T03:53:27.139Z,1.80
2022-09-27T03:55:54.338Z,2.00
2022-09-27T03:58:21.141Z,1.77
2022-09-27T04:00:49.485Z,1.63
2022-09-27T04:03:17.536Z,1.70
2022-09-27T04:05:44.612Z,1.70
2022-09-27T04:08:11.863Z,1.50
2022-09-27T04:10:40.582Z,1.70
2022-09-27T04:13:07.382Z,2.00
2022-09-27T04:15:34.555Z,1.60
2022-09-27T04:18:01.617Z,1.90
2022-09-27T04:20:28.892Z,1.53
2022-09-27T04:22:55.764Z,2.10
2022-09-27T04:25:23.040Z,2.00
2022-09-27T04:27:54.678Z,2.23
2022-09-27T04:30:22.634Z,1.80
2022-09-27T04:32:49.403Z,2.20
2022-09-27T04:35:35.363Z,2.10
2022-09-27T04:38:02.162Z,2.03
2022-09-27T04:40:29.775Z,2.40
2022-09-27T04:42:58.152Z,2.20
2022-09-27T04:45:25.769Z,2.57
2022-09-27T04:47:52.684Z,2.53
2022-09-27T04:50:20.581Z,2.87
2022-09-27T04:52:50.903Z,2.20
2022-09-27T04:55:18.611Z,2.37
2022-09-27T04:57:45.475Z,2.70
2022-09-27T05:00:16.070Z,2.53
2022-09-27T05:02:43.528Z,2.80
2022-09-27T05:05:11.334Z,2.50
2022-09-27T05:07:39.143Z,2.60
2022-09-27T05:10:07.569Z,2.90
2022-09-27T05:12:34.430Z,3.17
2022-09-27T05:15:01.772Z,3.27
2022-09-27T05:17:29.939Z,3.30
2022-09-27T05:19:57.200Z,2.67
2022-09-27T05:22:24.120Z,2.80
2022-09-27T05:24:51.275Z,3.40
2022-09-27T05:27:20.364Z,3.20
2022-09-27T05:29:47.779Z,3.47
2022-09-27T05:32:15.188Z,3.50
2022-09-27T05:34:43.807Z,3.60
2022-09-27T05:37:10.743Z,3.97
2022-09-27T05:39:37.956Z,3.87
2022-09-27T05:42:07.200Z,4.17
2022-09-27T05:44:35.698Z,4.00
2022-09-27T05:47:05.702Z,4.30
2022-09-27T05:49:33.469Z,4.50
2022-09-27T05:52:01.822Z,4.10
2022-09-27T05:54:30.327Z,3.87
2022-09-27T05:57:00.648Z,3.83
2022-09-27T05:59:28.516Z,4.33
2022-09-27T06:01:55.434Z,3.40
2022-09-27T06:04:22.866Z,3.37
2022-09-27T06:06:49.649Z,2.97
2022-09-27T06:09:18.361Z,3.30
2022-09-27T06:11:46.091Z,3.80
2022-09-27T06:14:14.059Z,3.40
2022-09-27T06:16:41.113Z,3.70
2022-09-27T06:19:09.062Z,4.20
2022-09-27T06:21:36.379Z,4.90
2022-09-27T06:24:04.410Z,5.33
2022-09-27T06:26:33.599Z,5.27
2022-09-27T06:29:00.878Z,5.70
2022-09-27T06:31:27.723Z,6.00
2022-09-27T06:33:54.819Z,6.07
2022-09-27T06:36:21.733Z,5.83
2022-09-27T06:38:49.447Z,5.50
2022-09-27T06:41:16.441Z,6.20
2022-09-27T06:43:45.602Z,7.00
2022-09-27T06:46:12.576Z,6.50
2022-09-27T06:48:39.997Z,6.20
2022-09-27T06:51:06.972Z,6.13
2022-09-27T06:53:34.185Z,6.60
2022-09-27T06:56:02.099Z,5.77
2022-09-27T06:58:48.811Z,5.33
2022-09-27T07:01:18.155Z,5.03
2022-09-27T07:03:50.311Z,4.87
2022-09-27T07:06:24.249Z,5.37
2022-09-27T07:08:52.680Z,4.90
2022-09-27T07:11:20.380Z,5.20
2022-09-27T07:13:47.610Z,5.60
2022-09-27T07:16:14.759Z,5.47
2022-09-27T07:18:43.432Z,5.47
2022-09-27T07:21:12.480Z,5.97
2022-09-27T07:23:40.089Z,6.00
2022-09-27T07:26:08.347Z,5.33
2022-09-27T07:28:35.506Z,5.63
2022-09-27T07:31:03.340Z,6.10
2022-09-27T07:33:31.154Z,5.57
2022-09-27T07:35:59.572Z,6.17
2022-09-27T07:38:27.074Z,5.30
2022-09-27T07:40:54.436Z,5.10
2022-09-27T07:43:21.477Z,4.80
2022-09-27T07:45:48.888Z,4.93
2022-09-27T07:48:16.682Z,4.70
2022-09-27T07:50:43.934Z,4.60
2022-09-27T07:53:13.785Z,5.33
2022-09-27T07:55:41.015Z,5.07
2022-09-27T07:58:09.570Z,4.63
2022-09-27T08:00:37.333Z,4.77
2022-09-27T08:03:06.897Z,4.63
2022-09-27T08:05:34.940Z,5.00
2022-09-27T08:08:02.023Z,5.70
2022-09-27T08:10:31.736Z,5.70
2022-09-27T08:12:58.665Z,5.80
2022-09-27T08:15:25.854Z,5.90
2022-09-27T08:17:53.520Z,6.50
2022-09-27T08:20:20.528Z,6.90
2022-09-27T08:22:47.387Z,7.53
2022-09-27T08:25:14.518Z,7.33
2022-09-27T08:27:42.772Z,7.17
2022-09-27T08:30:10.762Z,7.47
2022-09-27T08:32:38.172Z,7.03
2022-09-27T08:35:07.500Z,7.33
2022-09-27T08:37:34.460Z,6.60
2022-09-27T08:40:02.161Z,7.30
2022-09-27T08:42:39.833Z,6.90
2022-09-27T08:45:17.706Z,6.37
2022-09-27T08:47:49.171Z,6.37
2022-09-27T08:50:27.438Z,6.90
2022-09-27T08:52:58.572Z,6.53
2022-09-27T08:55:30.969Z,6.80
2022-09-27T08:57:59.480Z,6.50
2022-09-27T09:00:29.662Z,7.20
2022-09-27T09:02:57.030Z,7.13
2022-09-27T09:05:30.193Z,6.77
2022-09-27T09:08:19.055Z,7.63
2022-09-27T09:11:16.348Z,7.43
2022-09-27T09:13:57.190Z,6.83
2022-09-27T09:16:35.364Z,7.93
2022-09-27T09:19:24.109Z,7.33
2022-09-27T09:22:01.422Z,7.03
2022-09-27T09:24:41.386Z,6.40
2022-09-27T09:27:17.598Z,6.37
2022-09-27T09:30:02.077Z,5.47
2022-09-27T09:32:38.411Z,5.30
2022-09-27T09:35:11.452Z,5.23
2022-09-27T09:37:42.923Z,5.03
2022-09-27T09:40:19.967Z,4.80
2022-09-27T09:42:52.713Z,4.50
2022-09-27T09:45:22.924Z,4.77
2022-09-27T09:47:57.979Z,4.50
2022-09-27T09:50:29.049Z,4.33
2022-09-27T09:53:02.522Z,4.17
2022-09-27T09:55:33.003Z,3.70
2022-09-27T09:58:05.855Z,4.20
2022-09-27T10:00:32.767Z,4.07
2022-09-27T10:03:01.055Z,4.10
2022-09-27T10:05:29.309Z,3.50
2022-09-27T10:07:59.896Z,3.40
2022-09-27T10:10:27.979Z,3.33
2022-09-27T10:12:56.224Z,3.20
2022-09-27T10:15:24.702Z,2.50
2022-09-27T10:17:54.389Z,2.63
2022-09-27T10:20:34.481Z,2.73
2022-09-27T10:23:06.871Z,2.80
2022-09-27T10:25:48.671Z,2.37
2022-09-27T10:28:32.970Z,2.40
2022-09-27T10:31:03.315Z,2.30
2022-09-27T10:33:31.717Z,2.60
2022-09-27T10:36:01.440Z,2.63
2022-09-27T10:38:31.332Z,2.30
2022-09-27T10:41:16.187Z,2.50
2022-09-27T10:43:43.211Z,2.50
2022-09-27T10:46:15.986Z,2.20
2022-09-27T10:48:43.341Z,2.30
2022-09-27T10:51:24.915Z,2.30
2022-09-27T10:53:52.319Z,1.93
2022-09-27T10:56:23.940Z,2.00
2022-09-27T10:58:51.829Z,1.73
2022-09-27T11:01:18.987Z,1.90
2022-09-27T11:03:49.787Z,1.80
2022-09-27T11:06:29.013Z,2.10
2022-09-27T11:09:09.362Z,1.47
2022-09-27T11:11:36.662Z,1.30
2022-09-27T11:14:07.840Z,1.33
2022-09-27T11:16:46.951Z,1.40
2022-09-27T11:19:32.312Z,1.30
2022-09-27T11:22:09.937Z,1.30
2022-09-27T11:24:49.395Z,1.53
2022-09-27T11:27:26.130Z,1.20
2022-09-27T11:30:05.048Z,1.00
2022-09-27T11:32:47.854Z,1.00
2022-09-27T11:35:33.328Z,1.43
2022-09-27T11:38:24.779Z,1.53
2022-09-27T11:41:17.415Z,1.40
2022-09-27T11:44:03.153Z,1.40
2022-09-27T11:46:40.244Z,1.40
2022-09-27T11:49:31.173Z,1.40
2022-09-27T11:52:23.663Z,1.40
2022-09-27T11:55:09.586Z,1.30
2022-09-27T11:57:41.275Z,1.23
2022-09-27T12:00:16.306Z,1.20
2022-09-27T12:03:10.293Z,0.97
2022-09-27T12:05:44.931Z,1.13
2022-09-27T12:08:23.543Z,1.30
2022-09-27T12:10:58.742Z,1.50
2022-09-27T12:13:31.713Z,1.37
2022-09-27T12:15:59.863Z,1.00
2022-09-27T12:18:30.204Z,1.00
2022-09-27T12:20:59.800Z,1.10
2022-09-27T12:23:36.767Z,1.20
2022-09-27T12:26:09.163Z,1.20
2022-09-27T12:28:40.942Z,1.40
2022-09-27T12:31:31.485Z,1.03
2022-09-27T12:34:06.565Z,1.40
2022-09-27T12:36:38.810Z,1.50
2022-09-27T12:39:13.834Z,1.23
2022-09-27T12:41:49.250Z,1.63
2022-09-27T12:44:16.562Z,1.20
2022-09-27T12:46:56.217Z,1.30
2022-09-27T12:49:35.030Z,1.50
2022-09-27T12:52:07.930Z,1.50
2022-09-27T12:55:01.928Z,1.20
2022-09-27T12:57:44.815Z,1.30
2022-09-27T13:00:16.602Z,1.10
2022-09-27T13:03:15.414Z,1.13
2022-09-27T13:06:18.711Z,1.00
2022-09-27T13:09:15.561Z,1.53
2022-09-27T13:11:54.110Z,1.03
2022-09-27T13:14:26.190Z,0.73
2022-09-27T13:16:53.490Z,0.80
2022-09-27T13:19:40.292Z,0.60
2022-09-27T13:22:08.759Z,1.10
2022-09-27T13:24:43.757Z,0.80
2022-09-27T13:27:36.712Z,1.00
2022-09-27T13:30:46.983Z,0.63
2022-09-27T13:33:39.523Z,0.90
2022-09-27T13:36:08.765Z,0.97
2022-09-27T13:38:36.634Z,0.90
2022-09-27T13:41:17.900Z,0.60
2022-09-27T13:43:57.714Z,0.70
2022-09-27T13:46:27.327Z,1.00
2022-09-27T13:48:59.526Z,0.83
2022-09-27T13:51:36.667Z,0.80
2022-09-27T13:54:10.267Z,0.70
2022-09-27T13:56:56.548Z,0.77
2022-09-27T13:59:30.389Z,0.60
2022-09-27T14:02:11.409Z,0.60
2022-09-27T14:04:43.637Z,0.77
2022-09-27T14:07:16.029Z,0.60
2022-09-27T14:09:47.995Z,0.60
2022-09-27T14:12:19.753Z,0.70
2022-09-27T14:14:49.362Z,0.60
2022-09-27T14:17:17.219Z,0.80
2022-09-27T14:19:46.676Z,0.70
2022-09-27T14:22:14.115Z,0.80
2022-09-27T14:24:46.636Z,0.80
2022-09-27T14:27:17.374Z,0.77
2022-09-27T14:29:47.247Z,0.60
2022-09-27T14:32:16.553Z,0.60
2022-09-27T14:34:45.547Z,0.70
2022-09-27T14:37:24.349Z,0.70
2022-09-27T14:39:57.507Z,0.90
2022-09-27T14:42:26.490Z,0.70
2022-09-27T14:44:55.737Z,0.83
2022-09-27T14:47:24.824Z,0.80
2022-09-27T14:49:54.708Z,0.80
2022-09-27T14:52:27.650Z,0.80
2022-09-27T14:54:59.733Z,0.90
2022-09-27T14:57:28.374Z,0.93
2022-09-27T14:59:57.515Z,0.80
2022-09-27T15:02:26.816Z,0.90
2022-09-27T15:04:55.467Z,0.87
2022-09-27T15:07:23.323Z,0.83
2022-09-27T15:09:51.373Z,0.87
2022-09-27T15:12:25.731Z,0.60
2022-09-27T15:14:55.221Z,0.70
2022-09-27T15:17:22.978Z,0.50
2022-09-27T15:20:20.000Z,0.70
2022-09-27T15:22:47.438Z,0.60
2022-09-27T15:25:25.274Z,0.50
2022-09-27T15:27:54.661Z,0.80
2022-09-27T15:30:29.808Z,0.60
2022-09-27T15:32:57.583Z,0.90
2022-09-27T15:35:30.280Z,0.80
2022-09-27T15:38:12.401Z,1.00
2022-09-27T15:41:08.564Z,0.63
2022-09-27T15:43:40.040Z,0.70
2022-09-27T15:46:33.090Z,0.80
2022-09-27T15:49:35.474Z,0.93
2022-09-27T15:52:05.191Z,1.00
2022-09-27T15:54:35.680Z,1.00
2022-09-27T15:57:04.672Z,0.90
2022-09-27T15:59:34.490Z,0.90
2022-09-27T16:02:07.789Z,0.90
2022-09-27T16:04:35.159Z,1.40
2022-09-27T16:07:04.926Z,1.30
2022-09-27T16:09:31.972Z,1.00
2022-09-27T16:11:58.771Z,1.10
2022-09-27T16:14:25.631Z,1.17
2022-09-27T16:17:03.633Z,1.03
2022-09-27T16:19:30.429Z,0.97
2022-09-27T16:21:57.710Z,0.80
2022-09-27T16:24:27.859Z,1.03
2022-09-27T16:26:54.820Z,1.07
2022-09-27T16:29:21.744Z,0.77
2022-09-27T16:31:49.189Z,0.80
2022-09-27T16:34:16.582Z,0.90
2022-09-27T16:36:43.813Z,0.70
2022-09-27T16:39:15.034Z,0.80
2022-09-27T16:41:43.991Z,1.00
2022-09-27T16:44:12.856Z,1.30
2022-09-27T16:46:41.493Z,0.93
2022-09-27T16:49:28.488Z,1.30
2022-09-27T16:52:01.076Z,1.30
2022-09-27T16:54:30.828Z,1.30
2022-09-27T16:56:59.711Z,1.33
2022-09-27T16:59:27.043Z,1.30
2022-09-27T17:01:58.135Z,1.70
2022-09-27T17:04:25.979Z,1.83
2022-09-27T17:06:53.428Z,1.30
2022-09-27T17:09:21.504Z,1.50
2022-09-27T17:11:49.005Z,1.73
2022-09-27T17:14:17.608Z,1.40
2022-09-27T17:16:45.925Z,1.20
2022-09-27T17:19:13.157Z,1.60
2022-09-27T17:21:41.087Z,1.40
2022-09-27T17:24:08.075Z,1.90
2022-09-27T17:26:35.555Z,1.50
2022-09-27T17:29:02.543Z,1.93
2022-09-27T17:31:35.019Z,1.70
2022-09-27T17:34:02.534Z,1.63
2022-09-27T17:36:34.166Z,1.43
2022-09-27T17:39:01.568Z,1.50
2022-09-27T17:41:29.596Z,1.37
2022-09-27T17:43:58.328Z,1.30
2022-09-27T17:46:27.254Z,1.50
2022-09-27T17:49:14.347Z,1.57
2022-09-27T17:51:42.129Z,2.03
2022-09-27T17:54:10.508Z,2.27
2022-09-27T17:56:38.517Z,2.20
2022-09-27T17:59:06.198Z,2.10
2022-09-27T18:01:33.783Z,2.07
2022-09-27T18:04:04.318Z,2.47
2022-09-27T18:06:31.745Z,2.50
2022-09-27T18:08:58.610Z,2.40
2022-09-27T18:11:29.830Z,2.30
2022-09-27T18:14:01.542Z,2.07
2022-09-27T18:16:32.411Z,2.27
2022-09-27T18:19:00.626Z,2.50
2022-09-27T18:21:31.387Z,2.67
2022-09-27T18:24:00.234Z,3.47
2022-09-27T18:26:29.139Z,3.23
2022-09-27T18:29:00.904Z,2.90
2022-09-27T18:31:28.240Z,2.90
2022-09-27T18:33:55.323Z,3.20
2022-09-27T18:36:24.957Z,2.70
2022-09-27T18:38:54.868Z,2.90
2022-09-27T18:41:23.781Z,2.90
2022-09-27T18:43:56.806Z,3.23
2022-09-27T18:46:40.769Z,2.67
2022-09-27T18:49:10.660Z,2.93
2022-09-27T18:51:41.543Z,2.50
2022-09-27T18:54:14.307Z,3.10
2022-09-27T18:56:41.968Z,3.30
2022-09-27T18:59:09.979Z,3.63
2022-09-27T19:01:45.089Z,3.63
2022-09-27T19:04:14.378Z,3.40
2022-09-27T19:06:42.301Z,2.87
2022-09-27T19:09:11.398Z,3.20
2022-09-27T19:11:39.162Z,3.33
2022-09-27T19:14:06.793Z,3.37
2022-09-27T19:16:34.717Z,3.27
2022-09-27T19:19:01.618Z,3.30
2022-09-27T19:21:29.801Z,3.20
2022-09-27T19:23:57.159Z,3.37
2022-09-27T19:26:27.348Z,3.57
2022-09-27T19:28:54.559Z,3.50
2022-09-27T19:31:23.277Z,3.33
2022-09-27T19:33:50.455Z,3.10
2022-09-27T19:36:18.981Z,2.67
2022-09-27T19:38:47.234Z,3.00
2022-09-27T19:41:15.849Z,3.20
2022-09-27T19:43:45.276Z,3.30
2022-09-27T19:46:17.249Z,3.00
2022-09-27T19:48:45.566Z,2.53
2022-09-27T19:51:15.485Z,2.73
2022-09-27T19:53:42.616Z,2.63
2022-09-27T19:56:11.214Z,2.70
2022-09-27T19:58:39.186Z,2.73
2022-09-27T20:01:09.327Z,2.60
2022-09-27T20:03:38.648Z,2.53
2022-09-27T20:06:09.558Z,2.47
2022-09-27T20:08:36.967Z,2.90
2022-09-27T20:11:06.771Z,2.67
2022-09-27T20:13:35.192Z,2.97
2022-09-27T20:16:04.181Z,3.10
2022-09-27T20:18:33.035Z,3.00
2022-09-27T20:21:01.055Z,3.17
2022-09-27T20:23:28.400Z,2.87
2022-09-27T20:26:00.393Z,3.03
2022-09-27T20:28:28.181Z,3.30
2022-09-27T20:30:59.057Z,3.03
2022-09-27T20:33:41.271Z,3.30
2022-09-27T20:36:12.255Z,3.27
2022-09-27T20:38:39.787Z,3.20
2022-09-27T20:41:07.228Z,3.80
2022-09-27T20:43:34.615Z,3.97
2022-09-27T20:46:02.675Z,3.70
2022-09-27T20:48:29.880Z,4.03
2022-09-27T20:51:02.393Z,3.90
2022-09-27T20:53:33.237Z,4.00
2022-09-27T20:56:04.665Z,3.90
2022-09-27T20:58:32.086Z,5.00
2022-09-27T21:01:05.407Z,4.30
2022-09-27T21:03:32.429Z,4.40
2022-09-27T21:05:59.404Z,3.80
2022-09-27T21:08:29.528Z,3.57
2022-09-27T21:11:08.289Z,3.33
2022-09-27T21:13:35.713Z,3.67
2022-09-27T21:16:04.146Z,3.47
2022-09-27T21:18:31.420Z,3.23
2022-09-27T21:20:59.954Z,3.80
2022-09-27T21:23:27.482Z,3.43
2022-09-27T21:26:04.062Z,3.70
2022-09-27T21:28:35.366Z,3.37
2022-09-27T21:31:04.726Z,3.90
2022-09-27T21:33:31.913Z,3.30
2022-09-27T21:35:58.749Z,3.40
2022-09-27T21:38:25.733Z,3.60
2022-09-27T21:40:56.854Z,3.53
2022-09-27T21:43:29.950Z,3.53
2022-09-27T21:46:02.573Z,3.77
2022-09-27T21:48:30.376Z,3.87
2022-09-27T21:51:02.756Z,3.57
2022-09-27T21:53:30.253Z,3.87
2022-09-27T21:55:57.310Z,3.80
2022-09-27T21:58:24.893Z,3.80
2022-09-27T22:00:53.408Z,4.17
2022-09-27T22:03:20.691Z,4.30
2022-09-27T22:05:48.995Z,4.70
2022-09-27T22:08:17.482Z,4.70
2022-09-27T22:10:44.821Z,5.10
2022-09-27T22:13:13.060Z,5.90
2022-09-27T22:15:40.217Z,5.93
2022-09-27T22:18:08.836Z,6.80
2022-09-27T22:20:35.740Z,8.27
2022-09-27T22:23:03.013Z,8.03
2022-09-27T22:25:30.228Z,8.33
2022-09-27T22:27:57.227Z,9.43
2022-09-27T22:30:24.170Z,10.37
2022-09-27T22:32:51.362Z,10.93
2022-09-27T22:35:20.062Z,11.27
2022-09-27T22:37:47.244Z,12.03
2022-09-27T22:40:14.712Z,12.10
2022-09-27T22:42:42.060Z,12.37
2022-09-27T22:45:10.178Z,13.40
2022-09-27T22:47:37.504Z,14.67
2022-09-27T22:50:05.232Z,14.03
2022-09-27T22:52:34.028Z,14.07
2022-09-27T22:55:00.834Z,14.30
2022-09-27T22:57:28.052Z,14.80
2022-09-27T22:59:54.789Z,14.87
2022-09-27T23:02:21.659Z,15.50
2022-09-27T23:04:48.935Z,15.60
2022-09-27T23:07:16.194Z,15.03
2022-09-27T23:09:44.354Z,15.67
2022-09-27T23:12:11.369Z,15.20
2022-09-27T23:14:42.592Z,16.03
2022-09-27T23:17:10.060Z,15.87
2022-09-27T23:19:37.453Z,15.77
2022-09-27T23:22:04.436Z,16.10
2022-09-27T23:24:31.593Z,15.47
2022-09-27T23:27:18.997Z,15.43
2022-09-27T23:29:46.023Z,15.27
2022-09-27T23:32:12.892Z,15.40
2022-09-27T23:34:39.755Z,15.87
2022-09-27T23:37:06.773Z,15.80
2022-09-27T23:39:34.030Z,16.23
2022-09-27T23:42:03.505Z,15.63
2022-09-27T23:44:31.303Z,16.60
2022-09-27T23:47:00.826Z,16.07
2022-09-27T23:49:28.222Z,16.27
2022-09-27T23:51:55.931Z,15.47
2022-09-27T23:54:22.925Z,15.17
2022-09-27T23:56:50.027Z,14.53
2022-09-27T23:59:18.985Z,14.13
